sensor_id;sensor_type;location;lat;lon;timestamp;P1;durP1;ratioP1;P2;durP2;ratioP2
24435;SDS011;12616;52.470;13.436;2023-07-31T00:01:31;3.93;;;3.60;;
24435;SDS011;12616;52.470;13.436;2023-07-31T00:04:12;6.67;;;4.43;;
24435;SDS011;12616;52.470;13.436;2023-07-31T00:06:50;7.10;;;5.40;;
24435;SDS011;12616;52.470;13.436;2023-07-31T00:09:33;8.60;;;4.20;;
24435;SDS011;12616;52.470;13.436;2023-07-31T00:12:24;7.67;;;4.53;;
24435;SDS011;12616;52.470;13.436;2023-07-31T00:15:14;7.40;;;5.60;;
24435;SDS011;12616;52.470;13.436;2023-07-31T00:21:18;7.67;;;4.80;;
24435;SDS011;12616;52.470;13.436;2023-07-31T00:23:59;4.93;;;3.80;;
24435;SDS011;12616;52.470;13.436;2023-07-31T00:26:45;5.60;;;3.40;;
24435;SDS011;12616;52.470;13.436;2023-07-31T00:33:23;3.73;;;3.30;;
24435;SDS011;12616;52.470;13.436;2023-07-31T01:03:58;3.93;;;3.50;;
24435;SDS011;12616;52.470;13.436;2023-07-31T01:07:07;5.53;;;3.30;;
24435;SDS011;12616;52.470;13.436;2023-07-31T01:13:22;3.60;;;3.30;;
24435;SDS011;12616;52.470;13.436;2023-07-31T02:44:39;4.53;;;3.70;;
24435;SDS011;12616;52.470;13.436;2023-07-31T02:57:07;4.93;;;4.40;;
24435;SDS011;12616;52.470;13.436;2023-07-31T04:55:09;8.90;;;5.93;;
24435;SDS011;12616;52.470;13.436;2023-07-31T05:01:53;8.77;;;5.00;;
24435;SDS011;12616;52.470;13.436;2023-07-31T05:05:04;6.60;;;5.03;;
24435;SDS011;12616;52.470;13.436;2023-07-31T05:11:36;6.37;;;5.10;;
24435;SDS011;12616;52.470;13.436;2023-07-31T05:14:13;9.30;;;5.47;;
24435;SDS011;12616;52.470;13.436;2023-07-31T05:17:11;5.37;;;4.60;;
24435;SDS011;12616;52.470;13.436;2023-07-31T05:26:22;8.70;;;4.30;;
24435;SDS011;12616;52.470;13.436;2023-07-31T05:29:11;9.30;;;4.80;;
24435;SDS011;12616;52.470;13.436;2023-07-31T05:31:54;7.97;;;4.30;;
24435;SDS011;12616;52.470;13.436;2023-07-31T05:34:40;4.63;;;4.23;;
24435;SDS011;12616;52.470;13.436;2023-07-31T05:38:39;7.50;;;4.63;;
24435;SDS011;12616;52.470;13.436;2023-07-31T05:40:33;5.37;;;3.90;;
24435;SDS011;12616;52.470;13.436;2023-07-31T05:46:56;5.90;;;4.10;;
24435;SDS011;12616;52.470;13.436;2023-07-31T05:49:47;13.63;;;5.60;;
24435;SDS011;12616;52.470;13.436;2023-07-31T05:52:34;8.33;;;5.47;;
24435;SDS011;12616;52.470;13.436;2023-07-31T05:55:04;8.47;;;4.53;;
24435;SDS011;12616;52.470;13.436;2023-07-31T05:59:13;6.87;;;4.37;;
24435;SDS011;12616;52.470;13.436;2023-07-31T06:01:33;5.80;;;3.93;;
24435;SDS011;12616;52.470;13.436;2023-07-31T06:08:18;4.13;;;3.70;;
24435;SDS011;12616;52.470;13.436;2023-07-31T06:11:37;6.67;;;4.40;;
24435;SDS011;12616;52.470;13.436;2023-07-31T06:14:40;5.17;;;4.03;;
24435;SDS011;12616;52.470;13.436;2023-07-31T07:13:25;5.30;;;4.80;;
24435;SDS011;12616;52.470;13.436;2023-07-31T07:22:32;4.20;;;3.80;;
24435;SDS011;12616;52.470;13.436;2023-07-31T07:25:42;7.00;;;3.80;;
24435;SDS011;12616;52.470;13.436;2023-07-31T07:33:35;6.37;;;4.43;;
24435;SDS011;12616;52.470;13.436;2023-07-31T07:36:49;7.10;;;4.73;;
24435;SDS011;12616;52.470;13.436;2023-07-31T08:05:50;4.40;;;3.70;;
24435;SDS011;12616;52.470;13.436;2023-07-31T08:13:23;3.33;;;3.13;;
24435;SDS011;12616;52.470;13.436;2023-07-31T08:16:04;5.83;;;3.93;;
24435;SDS011;12616;52.470;13.436;2023-07-31T08:18:31;4.53;;;4.13;;
24435;SDS011;12616;52.470;13.436;2023-07-31T08:21:05;5.30;;;4.27;;
24435;SDS011;12616;52.470;13.436;2023-07-31T08:23:33;6.00;;;3.17;;
24435;SDS011;12616;52.470;13.436;2023-07-31T08:26:00;5.40;;;4.90;;
24435;SDS011;12616;52.470;13.436;2023-07-31T08:28:29;4.30;;;3.90;;
24435;SDS011;12616;52.470;13.436;2023-07-31T08:31:00;4.47;;;3.97;;
24435;SDS011;12616;52.470;13.436;2023-07-31T08:33:28;4.97;;;4.20;;
24435;SDS011;12616;52.470;13.436;2023-07-31T08:35:55;4.40;;;4.00;;
24435;SDS011;12616;52.470;13.436;2023-07-31T08:38:22;5.63;;;4.53;;
24435;SDS011;12616;52.470;13.436;2023-07-31T08:40:50;5.33;;;4.83;;
24435;SDS011;12616;52.470;13.436;2023-07-31T08:43:19;5.70;;;5.20;;
24435;SDS011;12616;52.470;13.436;2023-07-31T08:45:49;3.90;;;3.50;;
24435;SDS011;12616;52.470;13.436;2023-07-31T08:48:17;4.77;;;4.30;;
24435;SDS011;12616;52.470;13.436;2023-07-31T08:50:44;5.57;;;4.13;;
24435;SDS011;12616;52.470;13.436;2023-07-31T08:53:11;4.87;;;4.37;;
24435;SDS011;12616;52.470;13.436;2023-07-31T08:55:38;7.17;;;4.63;;
24435;SDS011;12616;52.470;13.436;2023-07-31T08:58:06;4.70;;;3.43;;
24435;SDS011;12616;52.470;13.436;2023-07-31T09:00:33;8.90;;;6.10;;
24435;SDS011;12616;52.470;13.436;2023-07-31T09:03:03;4.33;;;3.93;;
24435;SDS011;12616;52.470;13.436;2023-07-31T09:05:35;4.03;;;3.63;;
24435;SDS011;12616;52.470;13.436;2023-07-31T09:08:06;4.10;;;3.70;;
24435;SDS011;12616;52.470;13.436;2023-07-31T09:10:35;4.80;;;3.73;;
24435;SDS011;12616;52.470;13.436;2023-07-31T09:13:02;4.30;;;2.70;;
24435;SDS011;12616;52.470;13.436;2023-07-31T09:15:33;4.50;;;3.57;;
24435;SDS011;12616;52.470;13.436;2023-07-31T09:18:01;2.97;;;2.73;;
24435;SDS011;12616;52.470;13.436;2023-07-31T09:20:31;4.30;;;3.27;;
24435;SDS011;12616;52.470;13.436;2023-07-31T09:23:04;3.00;;;2.80;;
24435;SDS011;12616;52.470;13.436;2023-07-31T09:25:33;5.10;;;3.07;;
24435;SDS011;12616;52.470;13.436;2023-07-31T09:28:02;4.47;;;2.60;;
24435;SDS011;12616;52.470;13.436;2023-07-31T09:30:30;6.70;;;3.07;;
24435;SDS011;12616;52.470;13.436;2023-07-31T09:33:01;2.80;;;2.60;;
24435;SDS011;12616;52.470;13.436;2023-07-31T09:35:32;4.33;;;2.60;;
24435;SDS011;12616;52.470;13.436;2023-07-31T09:38:03;2.43;;;2.23;;
24435;SDS011;12616;52.470;13.436;2023-07-31T09:40:33;2.53;;;2.30;;
24435;SDS011;12616;52.470;13.436;2023-07-31T09:43:02;2.40;;;1.87;;
24435;SDS011;12616;52.470;13.436;2023-07-31T09:45:35;4.33;;;1.80;;
24435;SDS011;12616;52.470;13.436;2023-07-31T09:48:07;2.10;;;2.00;;
24435;SDS011;12616;52.470;13.436;2023-07-31T09:50:37;2.70;;;2.50;;
24435;SDS011;12616;52.470;13.436;2023-07-31T09:53:06;3.40;;;3.10;;
24435;SDS011;12616;52.470;13.436;2023-07-31T09:55:40;3.10;;;2.00;;
24435;SDS011;12616;52.470;13.436;2023-07-31T09:58:14;2.90;;;1.83;;
24435;SDS011;12616;52.470;13.436;2023-07-31T10:00:46;2.80;;;2.20;;
24435;SDS011;12616;52.470;13.436;2023-07-31T10:03:32;3.17;;;2.87;;
24435;SDS011;12616;52.470;13.436;2023-07-31T10:06:04;4.60;;;3.00;;
24435;SDS011;12616;52.470;13.436;2023-07-31T10:08:37;2.90;;;2.70;;
24435;SDS011;12616;52.470;13.436;2023-07-31T10:11:06;3.07;;;2.87;;
24435;SDS011;12616;52.470;13.436;2023-07-31T10:13:36;3.80;;;3.50;;
24435;SDS011;12616;52.470;13.436;2023-07-31T10:16:04;4.37;;;3.97;;
24435;SDS011;12616;52.470;13.436;2023-07-31T10:18:34;7.00;;;3.60;;
24435;SDS011;12616;52.470;13.436;2023-07-31T10:21:02;4.80;;;3.60;;
24435;SDS011;12616;52.470;13.436;2023-07-31T10:23:32;4.50;;;4.10;;
24435;SDS011;12616;52.470;13.436;2023-07-31T10:26:00;5.60;;;4.30;;
24435;SDS011;12616;52.470;13.436;2023-07-31T10:28:30;8.00;;;5.50;;
24435;SDS011;12616;52.470;13.436;2023-07-31T10:31:01;5.80;;;4.70;;
24435;SDS011;12616;52.470;13.436;2023-07-31T10:33:31;8.27;;;5.07;;
24435;SDS011;12616;52.470;13.436;2023-07-31T10:36:19;7.53;;;5.27;;
24435;SDS011;12616;52.470;13.436;2023-07-31T10:38:48;9.37;;;5.57;;
24435;SDS011;12616;52.470;13.436;2023-07-31T10:41:16;8.83;;;6.17;;
24435;SDS011;12616;52.470;13.436;2023-07-31T10:43:45;5.83;;;4.93;;
24435;SDS011;12616;52.470;13.436;2023-07-31T10:46:13;10.77;;;5.33;;
24435;SDS011;12616;52.470;13.436;2023-07-31T10:48:41;5.60;;;4.97;;
24435;SDS011;12616;52.470;13.436;2023-07-31T10:51:09;4.70;;;4.27;;
24435;SDS011;12616;52.470;13.436;2023-07-31T10:53:39;5.87;;;4.47;;
24435;SDS011;12616;52.470;13.436;2023-07-31T10:56:08;9.30;;;5.30;;
24435;SDS011;12616;52.470;13.436;2023-07-31T10:58:38;6.00;;;4.40;;
24435;SDS011;12616;52.470;13.436;2023-07-31T11:01:08;10.30;;;4.90;;
24435;SDS011;12616;52.470;13.436;2023-07-31T11:03:42;7.57;;;4.80;;
24435;SDS011;12616;52.470;13.436;2023-07-31T11:06:10;3.90;;;3.60;;
24435;SDS011;12616;52.470;13.436;2023-07-31T11:08:43;5.70;;;3.97;;
24435;SDS011;12616;52.470;13.436;2023-07-31T11:11:11;8.27;;;3.60;;
24435;SDS011;12616;52.470;13.436;2023-07-31T11:13:44;8.53;;;5.10;;
24435;SDS011;12616;52.470;13.436;2023-07-31T11:16:17;5.30;;;3.87;;
24435;SDS011;12616;52.470;13.436;2023-07-31T11:18:46;12.03;;;4.27;;
24435;SDS011;12616;52.470;13.436;2023-07-31T11:21:15;5.70;;;4.17;;
24435;SDS011;12616;52.470;13.436;2023-07-31T11:23:47;5.63;;;4.30;;
24435;SDS011;12616;52.470;13.436;2023-07-31T11:26:16;4.20;;;3.70;;
24435;SDS011;12616;52.470;13.436;2023-07-31T11:28:46;4.90;;;3.97;;
24435;SDS011;12616;52.470;13.436;2023-07-31T11:31:14;7.43;;;4.20;;
24435;SDS011;12616;52.470;13.436;2023-07-31T11:33:45;6.83;;;3.87;;
24435;SDS011;12616;52.470;13.436;2023-07-31T11:36:15;4.53;;;3.03;;
24435;SDS011;12616;52.470;13.436;2023-07-31T11:39:15;4.50;;;3.30;;
24435;SDS011;12616;52.470;13.436;2023-07-31T11:41:45;3.47;;;3.10;;
24435;SDS011;12616;52.470;13.436;2023-07-31T11:44:39;3.60;;;3.23;;
24435;SDS011;12616;52.470;13.436;2023-07-31T11:47:13;8.20;;;3.37;;
24435;SDS011;12616;52.470;13.436;2023-07-31T11:49:42;5.27;;;2.83;;
24435;SDS011;12616;52.470;13.436;2023-07-31T11:52:20;4.30;;;3.80;;
24435;SDS011;12616;52.470;13.436;2023-07-31T11:55:08;7.27;;;3.30;;
24435;SDS011;12616;52.470;13.436;2023-07-31T11:57:47;9.07;;;3.93;;
24435;SDS011;12616;52.470;13.436;2023-07-31T12:00:18;3.50;;;3.20;;
24435;SDS011;12616;52.470;13.436;2023-07-31T12:02:47;7.50;;;3.77;;
24435;SDS011;12616;52.470;13.436;2023-07-31T12:05:15;4.77;;;4.20;;
24435;SDS011;12616;52.470;13.436;2023-07-31T12:07:50;5.03;;;3.77;;
24435;SDS011;12616;52.470;13.436;2023-07-31T12:10:45;4.17;;;3.60;;
24435;SDS011;12616;52.470;13.436;2023-07-31T12:13:19;7.70;;;3.50;;
24435;SDS011;12616;52.470;13.436;2023-07-31T12:15:53;6.23;;;3.77;;
24435;SDS011;12616;52.470;13.436;2023-07-31T12:18:30;11.07;;;3.90;;
24435;SDS011;12616;52.470;13.436;2023-07-31T12:21:08;9.93;;;4.40;;
24435;SDS011;12616;52.470;13.436;2023-07-31T12:23:47;6.33;;;3.60;;
24435;SDS011;12616;52.470;13.436;2023-07-31T12:26:34;9.83;;;4.33;;
24435;SDS011;12616;52.470;13.436;2023-07-31T12:29:01;6.53;;;4.77;;
24435;SDS011;12616;52.470;13.436;2023-07-31T12:31:29;6.27;;;3.93;;
24435;SDS011;12616;52.470;13.436;2023-07-31T12:33:56;5.33;;;3.63;;
24435;SDS011;12616;52.470;13.436;2023-07-31T12:36:24;3.30;;;3.00;;
24435;SDS011;12616;52.470;13.436;2023-07-31T12:38:53;7.10;;;3.57;;
24435;SDS011;12616;52.470;13.436;2023-07-31T12:41:24;5.37;;;3.53;;
24435;SDS011;12616;52.470;13.436;2023-07-31T12:43:53;4.10;;;3.57;;
24435;SDS011;12616;52.470;13.436;2023-07-31T12:46:20;4.97;;;3.63;;
24435;SDS011;12616;52.470;13.436;2023-07-31T12:48:53;5.53;;;4.10;;
24435;SDS011;12616;52.470;13.436;2023-07-31T12:51:33;5.27;;;3.43;;
24435;SDS011;12616;52.470;13.436;2023-07-31T12:54:21;6.37;;;4.30;;
24435;SDS011;12616;52.470;13.436;2023-07-31T12:57:01;3.77;;;3.20;;
24435;SDS011;12616;52.470;13.436;2023-07-31T12:59:31;4.87;;;3.20;;
24435;SDS011;12616;52.470;13.436;2023-07-31T13:01:58;3.77;;;2.80;;
24435;SDS011;12616;52.470;13.436;2023-07-31T13:04:25;3.33;;;2.40;;
24435;SDS011;12616;52.470;13.436;2023-07-31T13:06:52;2.73;;;2.40;;
24435;SDS011;12616;52.470;13.436;2023-07-31T13:09:20;4.50;;;1.93;;
24435;SDS011;12616;52.470;13.436;2023-07-31T13:11:47;3.90;;;2.30;;
24435;SDS011;12616;52.470;13.436;2023-07-31T13:14:15;3.87;;;3.50;;
24435;SDS011;12616;52.470;13.436;2023-07-31T13:16:45;7.40;;;2.90;;
24435;SDS011;12616;52.470;13.436;2023-07-31T13:19:12;3.10;;;2.80;;
24435;SDS011;12616;52.470;13.436;2023-07-31T13:21:39;5.40;;;3.10;;
24435;SDS011;12616;52.470;13.436;2023-07-31T13:24:06;3.53;;;3.23;;
24435;SDS011;12616;52.470;13.436;2023-07-31T13:26:35;3.93;;;3.20;;
24435;SDS011;12616;52.470;13.436;2023-07-31T13:29:02;3.20;;;2.90;;
24435;SDS011;12616;52.470;13.436;2023-07-31T13:31:30;4.10;;;3.70;;
24435;SDS011;12616;52.470;13.436;2023-07-31T13:33:58;7.80;;;4.30;;
24435;SDS011;12616;52.470;13.436;2023-07-31T13:36:25;5.43;;;3.93;;
24435;SDS011;12616;52.470;13.436;2023-07-31T13:38:52;7.97;;;6.33;;
24435;SDS011;12616;52.470;13.436;2023-07-31T13:41:19;6.70;;;3.50;;
24435;SDS011;12616;52.470;13.436;2023-07-31T13:43:47;5.30;;;3.60;;
24435;SDS011;12616;52.470;13.436;2023-07-31T13:46:14;6.03;;;4.03;;
24435;SDS011;12616;52.470;13.436;2023-07-31T13:48:41;5.17;;;4.43;;
24435;SDS011;12616;52.470;13.436;2023-07-31T13:51:09;4.40;;;3.60;;
24435;SDS011;12616;52.470;13.436;2023-07-31T13:53:36;4.40;;;3.17;;
24435;SDS011;12616;52.470;13.436;2023-07-31T13:56:06;5.80;;;4.37;;
24435;SDS011;12616;52.470;13.436;2023-07-31T13:58:36;5.00;;;3.50;;
24435;SDS011;12616;52.470;13.436;2023-07-31T14:01:03;4.73;;;3.60;;
24435;SDS011;12616;52.470;13.436;2023-07-31T14:03:30;5.30;;;3.80;;
24435;SDS011;12616;52.470;13.436;2023-07-31T14:05:58;4.13;;;3.53;;
24435;SDS011;12616;52.470;13.436;2023-07-31T14:08:27;7.63;;;5.03;;
24435;SDS011;12616;52.470;13.436;2023-07-31T14:10:54;6.43;;;4.07;;
24435;SDS011;12616;52.470;13.436;2023-07-31T14:13:22;5.00;;;4.20;;
24435;SDS011;12616;52.470;13.436;2023-07-31T14:15:49;5.10;;;3.90;;
24435;SDS011;12616;52.470;13.436;2023-07-31T14:18:17;5.67;;;4.40;;
24435;SDS011;12616;52.470;13.436;2023-07-31T14:20:44;10.43;;;6.53;;
24435;SDS011;12616;52.470;13.436;2023-07-31T14:23:17;7.67;;;5.27;;
24435;SDS011;12616;52.470;13.436;2023-07-31T14:25:46;6.17;;;3.30;;
24435;SDS011;12616;52.470;13.436;2023-07-31T14:28:16;4.97;;;3.83;;
24435;SDS011;12616;52.470;13.436;2023-07-31T14:30:46;6.20;;;3.77;;
24435;SDS011;12616;52.470;13.436;2023-07-31T14:33:14;4.13;;;3.73;;
24435;SDS011;12616;52.470;13.436;2023-07-31T14:35:41;9.30;;;5.00;;
24435;SDS011;12616;52.470;13.436;2023-07-31T14:38:11;6.07;;;4.13;;
24435;SDS011;12616;52.470;13.436;2023-07-31T14:40:38;5.37;;;4.43;;
24435;SDS011;12616;52.470;13.436;2023-07-31T14:43:08;6.20;;;4.17;;
24435;SDS011;12616;52.470;13.436;2023-07-31T14:45:36;8.30;;;4.37;;
24435;SDS011;12616;52.470;13.436;2023-07-31T14:48:03;4.10;;;3.60;;
24435;SDS011;12616;52.470;13.436;2023-07-31T14:50:30;6.23;;;4.00;;
24435;SDS011;12616;52.470;13.436;2023-07-31T14:52:58;6.33;;;4.03;;
24435;SDS011;12616;52.470;13.436;2023-07-31T14:55:26;6.70;;;4.10;;
24435;SDS011;12616;52.470;13.436;2023-07-31T14:57:53;4.80;;;4.30;;
24435;SDS011;12616;52.470;13.436;2023-07-31T15:00:22;8.73;;;4.73;;
24435;SDS011;12616;52.470;13.436;2023-07-31T15:02:49;5.13;;;4.37;;
24435;SDS011;12616;52.470;13.436;2023-07-31T15:05:17;6.70;;;5.10;;
24435;SDS011;12616;52.470;13.436;2023-07-31T15:07:44;7.90;;;4.97;;
24435;SDS011;12616;52.470;13.436;2023-07-31T15:10:12;5.77;;;4.83;;
24435;SDS011;12616;52.470;13.436;2023-07-31T15:12:41;5.60;;;3.93;;
24435;SDS011;12616;52.470;13.436;2023-07-31T15:15:09;5.10;;;3.93;;
24435;SDS011;12616;52.470;13.436;2023-07-31T15:17:39;6.13;;;4.73;;
24435;SDS011;12616;52.470;13.436;2023-07-31T15:20:06;6.67;;;4.23;;
24435;SDS011;12616;52.470;13.436;2023-07-31T15:22:34;6.40;;;5.70;;
24435;SDS011;12616;52.470;13.436;2023-07-31T15:25:05;10.43;;;4.80;;
24435;SDS011;12616;52.470;13.436;2023-07-31T15:27:35;8.43;;;4.43;;
24435;SDS011;12616;52.470;13.436;2023-07-31T15:30:02;7.60;;;3.97;;
24435;SDS011;12616;52.470;13.436;2023-07-31T15:32:30;5.23;;;4.50;;
24435;SDS011;12616;52.470;13.436;2023-07-31T15:34:59;5.03;;;4.50;;
24435;SDS011;12616;52.470;13.436;2023-07-31T15:37:32;5.03;;;4.30;;
24435;SDS011;12616;52.470;13.436;2023-07-31T15:40:00;8.13;;;6.20;;
24435;SDS011;12616;52.470;13.436;2023-07-31T15:42:27;8.33;;;6.73;;
24435;SDS011;12616;52.470;13.436;2023-07-31T15:44:55;11.60;;;8.00;;
24435;SDS011;12616;52.470;13.436;2023-07-31T15:47:24;7.00;;;5.60;;
24435;SDS011;12616;52.470;13.436;2023-07-31T15:49:52;9.30;;;6.20;;
24435;SDS011;12616;52.470;13.436;2023-07-31T15:52:23;8.47;;;7.50;;
24435;SDS011;12616;52.470;13.436;2023-07-31T15:54:56;13.50;;;9.00;;
24435;SDS011;12616;52.470;13.436;2023-07-31T15:57:23;10.93;;;7.53;;
24435;SDS011;12616;52.470;13.436;2023-07-31T15:59:52;8.40;;;7.03;;
24435;SDS011;12616;52.470;13.436;2023-07-31T16:02:21;8.97;;;7.43;;
24435;SDS011;12616;52.470;13.436;2023-07-31T16:04:48;9.17;;;7.37;;
24435;SDS011;12616;52.470;13.436;2023-07-31T16:07:16;8.87;;;7.10;;
24435;SDS011;12616;52.470;13.436;2023-07-31T16:09:45;7.87;;;6.63;;
24435;SDS011;12616;52.470;13.436;2023-07-31T16:12:13;8.93;;;5.00;;
24435;SDS011;12616;52.470;13.436;2023-07-31T16:14:41;6.80;;;5.00;;
24435;SDS011;12616;52.470;13.436;2023-07-31T16:17:20;6.87;;;5.97;;
24435;SDS011;12616;52.470;13.436;2023-07-31T16:19:49;7.97;;;5.57;;
24435;SDS011;12616;52.470;13.436;2023-07-31T16:28:47;6.83;;;4.90;;
24435;SDS011;12616;52.470;13.436;2023-07-31T16:31:28;7.10;;;5.33;;
24435;SDS011;12616;52.470;13.436;2023-07-31T16:34:34;9.53;;;5.00;;
24435;SDS011;12616;52.470;13.436;2023-07-31T16:37:31;6.73;;;4.30;;
24435;SDS011;12616;52.470;13.436;2023-07-31T16:40:14;8.70;;;4.50;;
24435;SDS011;12616;52.470;13.436;2023-07-31T16:46:32;4.17;;;3.70;;
24435;SDS011;12616;52.470;13.436;2023-07-31T16:49:26;7.70;;;4.70;;
24435;SDS011;12616;52.470;13.436;2023-07-31T16:52:24;7.43;;;5.37;;
24435;SDS011;12616;52.470;13.436;2023-07-31T16:57:04;3.80;;;3.50;;
24435;SDS011;12616;52.470;13.436;2023-07-31T16:58:43;5.07;;;3.70;;
24435;SDS011;12616;52.470;13.436;2023-07-31T17:11:20;4.83;;;3.57;;
24435;SDS011;12616;52.470;13.436;2023-07-31T17:14:11;10.93;;;7.83;;
24435;SDS011;12616;52.470;13.436;2023-07-31T17:16:54;9.73;;;7.90;;
24435;SDS011;12616;52.470;13.436;2023-07-31T17:19:25;6.67;;;4.10;;
24435;SDS011;12616;52.470;13.436;2023-07-31T17:21:55;5.17;;;3.60;;
24435;SDS011;12616;52.470;13.436;2023-07-31T17:24:31;11.50;;;7.00;;
24435;SDS011;12616;52.470;13.436;2023-07-31T17:27:21;7.07;;;6.37;;
24435;SDS011;12616;52.470;13.436;2023-07-31T17:30:29;4.00;;;3.60;;
24435;SDS011;12616;52.470;13.436;2023-07-31T17:36:52;6.27;;;4.50;;
24435;SDS011;12616;52.470;13.436;2023-07-31T17:39:35;10.53;;;7.43;;
24435;SDS011;12616;52.470;13.436;2023-07-31T17:42:03;4.90;;;3.87;;
24435;SDS011;12616;52.470;13.436;2023-07-31T17:44:30;5.87;;;4.13;;
24435;SDS011;12616;52.470;13.436;2023-07-31T17:46:57;10.17;;;7.27;;
24435;SDS011;12616;52.470;13.436;2023-07-31T17:49:24;6.47;;;4.17;;
24435;SDS011;12616;52.470;13.436;2023-07-31T17:57:08;5.70;;;5.00;;
24435;SDS011;12616;52.470;13.436;2023-07-31T18:02:27;6.67;;;5.20;;
24435;SDS011;12616;52.470;13.436;2023-07-31T18:05:11;5.13;;;3.47;;
24435;SDS011;12616;52.470;13.436;2023-07-31T18:07:47;6.17;;;4.80;;
24435;SDS011;12616;52.470;13.436;2023-07-31T18:10:41;8.27;;;6.13;;
24435;SDS011;12616;52.470;13.436;2023-07-31T18:13:45;7.57;;;5.10;;
24435;SDS011;12616;52.470;13.436;2023-07-31T18:19:41;6.63;;;4.10;;
24435;SDS011;12616;52.470;13.436;2023-07-31T18:44:35;8.53;;;5.00;;
24435;SDS011;12616;52.470;13.436;2023-07-31T18:58:03;6.20;;;5.37;;
24435;SDS011;12616;52.470;13.436;2023-07-31T19:00:39;7.83;;;6.00;;
24435;SDS011;12616;52.470;13.436;2023-07-31T19:03:14;9.33;;;6.10;;
24435;SDS011;12616;52.470;13.436;2023-07-31T19:05:44;6.30;;;4.23;;
24435;SDS011;12616;52.470;13.436;2023-07-31T19:08:18;8.80;;;6.47;;
24435;SDS011;12616;52.470;13.436;2023-07-31T19:10:55;7.93;;;6.70;;
24435;SDS011;12616;52.470;13.436;2023-07-31T19:20:02;10.17;;;7.20;;
24435;SDS011;12616;52.470;13.436;2023-07-31T19:22:46;14.87;;;9.00;;
24435;SDS011;12616;52.470;13.436;2023-07-31T19:25:21;11.93;;;9.67;;
24435;SDS011;12616;52.470;13.436;2023-07-31T19:34:20;9.73;;;6.80;;
24435;SDS011;12616;52.470;13.436;2023-07-31T19:37:26;8.67;;;7.77;;
24435;SDS011;12616;52.470;13.436;2023-07-31T19:39:54;9.30;;;5.60;;
24435;SDS011;12616;52.470;13.436;2023-07-31T19:42:29;6.40;;;4.60;;
24435;SDS011;12616;52.470;13.436;2023-07-31T19:45:02;4.70;;;4.17;;
24435;SDS011;12616;52.470;13.436;2023-07-31T19:47:31;6.50;;;4.70;;
24435;SDS011;12616;52.470;13.436;2023-07-31T20:01:22;9.53;;;6.13;;
24435;SDS011;12616;52.470;13.436;2023-07-31T20:04:05;19.40;;;11.97;;
24435;SDS011;12616;52.470;13.436;2023-07-31T20:07:02;12.50;;;10.50;;
24435;SDS011;12616;52.470;13.436;2023-07-31T20:12:59;11.93;;;8.37;;
24435;SDS011;12616;52.470;13.436;2023-07-31T20:19:05;9.97;;;6.10;;
24435;SDS011;12616;52.470;13.436;2023-07-31T20:21:59;11.13;;;5.90;;
24435;SDS011;12616;52.470;13.436;2023-07-31T21:07:38;7.47;;;5.63;;
